Time;durP1;ratioP1;P1;durP2;ratioP2;P2;SDS_P1;SDS_P2;PMS_P1;PMS_P2;Temp;Humidity;BMP_temperature;BMP_pressure;BME280_temperature;BME280_humidity;BME280_pressure;Samples;Min_cycle;Max_cycle;Signal;HPM_P1;HPM_P2
2022/12/13 00:01:21;;;;;;;49.70;23.95;;;-4.00;99.90;;;;;;5003282;28;20044;-62
2022/12/13 00:03:47;;;;;;;49.58;23.58;;;-4.00;99.90;;;;;;5023151;28;20049;-62
2022/12/13 00:06:13;;;;;;;45.88;23.17;;;-4.00;99.90;;;;;;5056431;28;20405;-62
2022/12/13 00:08:40;;;;;;;47.25;23.45;;;-4.00;99.90;;;;;;5024629;28;20116;-62
2022/12/13 00:11:11;;;;;;;42.85;23.23;;;-4.10;99.90;;;;;;5014524;28;20056;-62
2022/12/13 00:13:38;;;;;;;53.45;24.73;;;-4.10;99.90;;;;;;5019981;28;20041;-62
2022/12/13 00:16:07;;;;;;;47.85;25.73;;;-4.10;99.90;;;;;;5018437;28;20046;-62
2022/12/13 00:18:33;;;;;;;49.15;25.30;;;-4.10;99.90;;;;;;5054378;28;20037;-62
2022/12/13 00:21:03;;;;;;;50.92;25.60;;;-4.10;99.90;;;;;;5000800;28;20034;-62
2022/12/13 00:23:29;;;;;;;50.40;24.40;;;-4.10;99.90;;;;;;5015232;28;20046;-62
2022/12/13 00:25:55;;;;;;;52.40;24.52;;;-4.10;99.90;;;;;;5021493;28;20628;-62
2022/12/13 00:28:21;;;;;;;53.72;24.90;;;-4.20;99.90;;;;;;5023093;28;20116;-62
2022/12/13 00:30:46;;;;;;;52.17;25.77;;;-4.20;99.90;;;;;;5055766;28;20459;-62
2022/12/13 00:33:12;;;;;;;53.10;22.55;;;-4.10;99.90;;;;;;5023305;28;20041;-62
2022/12/13 00:35:40;;;;;;;47.63;24.70;;;-4.20;99.90;;;;;;5032133;28;20466;-62
2022/12/13 00:38:09;;;;;;;48.78;24.85;;;-4.10;99.90;;;;;;5054384;28;20045;-62
2022/12/13 00:40:38;;;;;;;48.22;23.60;;;-4.10;99.90;;;;;;5021018;28;20081;-61
2022/12/13 00:43:04;;;;;;;49.55;23.25;;;-4.10;99.90;;;;;;5019902;28;20084;-62
2022/12/13 00:45:29;;;;;;;45.80;22.35;;;-4.10;99.90;;;;;;5017265;28;20054;-62
2022/12/13 00:47:55;;;;;;;49.85;22.80;;;-4.10;99.90;;;;;;5035212;28;20061;-62
2022/12/13 00:50:21;;;;;;;45.83;23.50;;;-4.20;99.90;;;;;;5023663;28;20049;-62
2022/12/13 00:52:47;;;;;;;48.67;22.60;;;-4.10;99.90;;;;;;5022151;28;20045;-62
2022/12/13 00:55:12;;;;;;;45.17;22.15;;;-4.10;99.90;;;;;;5014021;28;20050;-62
2022/12/13 00:57:38;;;;;;;44.45;22.13;;;-4.20;99.90;;;;;;5063373;28;20041;-62
2022/12/13 01:00:05;;;;;;;49.78;23.40;;;-4.20;99.90;;;;;;5031635;28;20056;-62
2022/12/13 01:02:30;;;;;;;40.20;21.15;;;-4.20;99.90;;;;;;5031634;28;20048;-61
2022/12/13 01:04:56;;;;;;;42.00;21.58;;;-4.20;99.90;;;;;;5063943;28;20657;-62
2022/12/13 01:07:22;;;;;;;44.63;22.17;;;-4.30;99.90;;;;;;5029443;28;20446;-62
2022/12/13 01:09:48;;;;;;;49.40;23.15;;;-4.30;99.90;;;;;;5030422;28;20041;-62
2022/12/13 01:12:14;;;;;;;41.80;21.23;;;-4.30;99.90;;;;;;5031997;28;20532;-62
2022/12/13 01:14:40;;;;;;;49.95;22.98;;;-4.30;99.90;;;;;;5031843;28;20120;-62
2022/12/13 01:17:06;;;;;;;43.58;22.65;;;-4.30;99.90;;;;;;5063794;28;20057;-61
2022/12/13 01:19:32;;;;;;;48.40;23.67;;;-4.20;99.90;;;;;;5064031;28;20040;-62
2022/12/13 01:22:01;;;;;;;48.65;23.98;;;-4.20;99.90;;;;;;5030641;28;20662;-61
2022/12/13 01:24:28;;;;;;;42.25;22.30;;;-4.20;99.90;;;;;;5063502;28;20375;-61
2022/12/13 01:26:54;;;;;;;43.08;23.35;;;-4.10;99.90;;;;;;5031648;28;20712;-61
2022/12/13 01:29:21;;;;;;;44.95;24.63;;;-4.10;99.90;;;;;;5031689;28;20120;-61
2022/12/13 01:31:48;;;;;;;46.50;24.48;;;-4.00;99.90;;;;;;5031713;28;20076;-61
2022/12/13 01:34:17;;;;;;;44.45;23.65;;;-4.00;99.90;;;;;;5030246;28;20480;-61
2022/12/13 01:36:44;;;;;;;48.83;22.02;;;-4.00;99.90;;;;;;5031284;28;20363;-61
2022/12/13 01:39:12;;;;;;;45.22;24.83;;;-4.00;99.90;;;;;;5029813;28;20080;-61
2022/12/13 01:41:38;;;;;;;42.05;22.20;;;-4.00;99.90;;;;;;5063557;28;20108;-61
2022/12/13 01:44:06;;;;;;;47.92;23.15;;;-4.00;99.90;;;;;;5030273;28;20484;-61
2022/12/13 01:46:34;;;;;;;48.47;23.08;;;-3.90;99.90;;;;;;5030051;28;20038;-61
2022/12/13 01:49:10;;;;;;;41.28;21.48;;;-3.90;99.90;;;;;;5063413;28;20041;-61
2022/12/13 01:51:42;;;;;;;42.28;22.05;;;-4.00;99.90;;;;;;5063349;28;20090;-62
2022/12/13 01:54:11;;;;;;;39.38;21.15;;;-4.00;99.90;;;;;;5029579;28;20054;-61
2022/12/13 01:56:44;;;;;;;50.80;21.87;;;-4.00;99.90;;;;;;5029715;28;20738;-61
2022/12/13 01:59:12;;;;;;;43.00;20.92;;;-4.10;99.90;;;;;;5031269;28;20092;-61
2022/12/13 02:01:38;;;;;;;44.97;21.65;;;-4.20;99.90;;;;;;5031106;28;20084;-61
2022/12/13 02:04:06;;;;;;;39.65;20.60;;;-4.20;99.90;;;;;;5062957;28;20060;-61
2022/12/13 02:06:39;;;;;;;37.08;20.25;;;-4.20;99.90;;;;;;5030189;28;20358;-61
2022/12/13 02:09:06;;;;;;;40.92;21.27;;;-4.20;99.90;;;;;;5013148;28;20172;-61
2022/12/13 02:11:35;;;;;;;39.22;20.70;;;-4.20;99.90;;;;;;5030891;28;20041;-61
2022/12/13 02:14:01;;;;;;;39.00;21.30;;;-4.30;99.90;;;;;;5026743;28;20042;-61
2022/12/13 02:16:33;;;;;;;37.67;19.83;;;-4.30;99.90;;;;;;5010907;28;20042;-61
2022/12/13 02:19:19;;;;;;;37.08;19.60;;;-4.30;99.90;;;;;;5009862;28;20057;-61
2022/12/13 02:21:58;;;;;;;32.25;18.13;;;-4.30;99.90;;;;;;5010591;28;20084;-61
2022/12/13 02:24:43;;;;;;;41.33;20.15;;;-4.30;99.90;;;;;;5011194;28;20049;-61
2022/12/13 02:27:12;;;;;;;36.08;19.35;;;-4.30;99.90;;;;;;4993280;28;20129;-61
2022/12/13 02:29:41;;;;;;;37.33;19.83;;;-4.30;99.90;;;;;;5010982;28;20099;-61
2022/12/13 02:32:28;;;;;;;34.03;18.85;;;-4.40;99.90;;;;;;5010679;28;20065;-61
2022/12/13 02:35:02;;;;;;;40.10;19.17;;;-4.40;99.90;;;;;;4993012;28;20471;-61
2022/12/13 02:37:53;;;;;;;37.78;20.85;;;-4.40;99.90;;;;;;5010383;28;20510;-61
2022/12/13 02:40:45;;;;;;;35.33;17.92;;;-4.40;99.90;;;;;;5009527;28;20084;-61
2022/12/13 02:43:15;;;;;;;37.08;17.88;;;-4.40;99.90;;;;;;5009573;28;20045;-61
2022/12/13 02:45:49;;;;;;;37.22;18.77;;;-4.40;99.90;;;;;;5010887;28;20425;-61
2022/12/13 02:48:22;;;;;;;33.47;18.23;;;-4.50;99.90;;;;;;5010863;28;20132;-61
2022/12/13 02:50:50;;;;;;;31.30;17.85;;;-4.50;99.90;;;;;;5010248;28;20061;-61
2022/12/13 02:53:18;;;;;;;34.05;17.73;;;-4.50;99.90;;;;;;5010610;28;20046;-61
2022/12/13 02:55:44;;;;;;;31.88;18.10;;;-4.60;99.90;;;;;;5009401;28;20041;-61
2022/12/13 02:58:17;;;;;;;39.85;19.40;;;-4.60;99.90;;;;;;5010734;28;20608;-61
2022/12/13 03:01:08;;;;;;;34.78;17.17;;;-4.60;99.90;;;;;;5010683;28;20069;-61
2022/12/13 03:03:45;;;;;;;35.63;19.08;;;-4.60;99.90;;;;;;5009301;28;20057;-61
2022/12/13 03:06:29;;;;;;;35.33;18.83;;;-4.70;99.90;;;;;;5010214;28;20049;-61
2022/12/13 03:09:07;;;;;;;32.33;17.92;;;-4.70;99.90;;;;;;5010749;28;20048;-61
2022/12/13 03:15:06;;;;;;;31.90;18.23;;;-4.70;99.90;;;;;;5042397;28;20490;-61
2022/12/13 03:17:38;;;;;;;30.90;16.65;;;-4.70;99.90;;;;;;5009300;28;20501;-61
2022/12/13 03:20:05;;;;;;;29.35;17.35;;;-4.80;99.90;;;;;;5013802;28;20505;-61
2022/12/13 03:22:33;;;;;;;30.27;18.20;;;-4.80;99.90;;;;;;5012885;28;20046;-61
2022/12/13 03:25:00;;;;;;;32.15;17.80;;;-4.90;99.90;;;;;;5046003;28;20513;-61
2022/12/13 03:27:26;;;;;;;38.75;18.50;;;-4.90;99.90;;;;;;5014190;28;20124;-61
2022/12/13 03:29:51;;;;;;;35.83;17.65;;;-4.90;99.90;;;;;;5014118;28;20038;-61
2022/12/13 03:32:17;;;;;;;32.03;15.57;;;-4.90;99.90;;;;;;5012711;28;20092;-61
2022/12/13 03:34:43;;;;;;;30.35;17.75;;;-4.90;99.90;;;;;;5013220;28;20054;-61
2022/12/13 03:37:09;;;;;;;37.90;17.02;;;-5.00;99.90;;;;;;5029103;28;20060;-62
2022/12/13 03:39:35;;;;;;;31.48;17.38;;;-5.10;99.90;;;;;;4996270;28;20046;-60
2022/12/13 03:42:01;;;;;;;34.83;18.63;;;-5.10;99.90;;;;;;5012448;28;20042;-60
2022/12/13 03:44:26;;;;;;;32.45;17.48;;;-5.00;99.90;;;;;;5013782;28;20038;-60
2022/12/13 03:46:52;;;;;;;35.80;18.85;;;-5.00;99.90;;;;;;5012721;28;20108;-60
2022/12/13 03:49:18;;;;;;;37.17;20.23;;;-5.00;99.90;;;;;;5013425;28;20116;-61
2022/12/13 03:51:44;;;;;;;42.03;21.75;;;-5.00;99.90;;;;;;5013865;28;20038;-61
2022/12/13 03:54:10;;;;;;;41.88;21.33;;;-4.90;99.90;;;;;;5013720;28;20092;-61
2022/12/13 03:56:36;;;;;;;37.08;20.23;;;-4.80;99.90;;;;;;5012213;28;20046;-61
2022/12/13 03:59:01;;;;;;;33.78;17.75;;;-4.70;99.90;;;;;;5013466;28;20037;-62
2022/12/13 04:01:27;;;;;;;26.45;16.63;;;-4.70;99.90;;;;;;5012111;28;20117;-61
2022/12/13 04:03:53;;;;;;;32.88;16.23;;;-4.80;99.90;;;;;;5013154;28;20041;-61
2022/12/13 04:06:19;;;;;;;33.50;16.23;;;-4.90;99.90;;;;;;5045619;28;20058;-61
2022/12/13 04:08:45;;;;;;;36.60;18.20;;;-5.10;99.90;;;;;;5012135;28;20724;-61
2022/12/13 04:13:55;;;;;;;31.35;17.45;;;-5.30;99.90;;;;;;5013384;28;20050;-61
2022/12/13 04:16:22;;;;;;;31.23;15.93;;;-5.40;99.90;;;;;;5011890;28;20088;-61
2022/12/13 04:18:47;;;;;;;33.70;17.33;;;-5.40;99.90;;;;;;5012862;28;20034;-62
2022/12/13 04:21:13;;;;;;;35.20;18.25;;;-5.40;99.90;;;;;;4995855;28;20437;-60
2022/12/13 04:23:39;;;;;;;33.20;17.67;;;-5.40;99.90;;;;;;4995530;28;20107;-61
2022/12/13 04:26:05;;;;;;;32.45;17.55;;;-5.40;99.90;;;;;;5013084;28;20096;-62
2022/12/13 04:28:31;;;;;;;32.78;18.33;;;-5.40;99.90;;;;;;5011404;28;20046;-61
2022/12/13 04:30:56;;;;;;;34.38;17.42;;;-5.40;99.90;;;;;;5012875;28;20049;-61
2022/12/13 04:33:23;;;;;;;35.20;17.58;;;-5.30;99.90;;;;;;5012799;28;20529;-61
2022/12/13 04:35:50;;;;;;;31.42;16.58;;;-5.40;99.90;;;;;;5011419;28;20119;-61
2022/12/13 04:38:16;;;;;;;35.08;17.92;;;-5.40;99.90;;;;;;5011585;28;20061;-61
2022/12/13 04:40:41;;;;;;;32.53;16.58;;;-5.50;99.90;;;;;;5012852;28;20030;-61
2022/12/13 04:43:07;;;;;;;36.35;20.15;;;-5.50;99.90;;;;;;5012782;28;20042;-61
2022/12/13 04:45:33;;;;;;;34.08;18.60;;;-5.40;99.90;;;;;;5012916;28;20045;-61
2022/12/13 04:47:58;;;;;;;37.78;20.52;;;-5.40;99.90;;;;;;5012433;28;20518;-61
2022/12/13 04:50:24;;;;;;;37.75;19.75;;;-5.30;99.90;;;;;;4995299;28;20128;-61
2022/12/13 04:52:50;;;;;;;42.72;23.13;;;-5.20;99.90;;;;;;5012629;28;20501;-61
2022/12/13 04:55:16;;;;;;;42.30;21.58;;;-5.20;99.90;;;;;;5012610;28;20042;-63
2022/12/13 04:57:42;;;;;;;43.70;21.17;;;-5.10;99.90;;;;;;5012509;28;20052;-61
2022/12/13 05:00:12;;;;;;;40.00;21.60;;;-5.00;99.90;;;;;;5044316;28;20156;-61
2022/12/13 05:02:40;;;;;;;40.20;20.65;;;-5.00;99.90;;;;;;5043922;28;20046;-61
2022/12/13 05:05:09;;;;;;;38.35;19.65;;;-4.90;99.90;;;;;;5012475;28;20458;-61
2022/12/13 05:07:36;;;;;;;33.35;18.80;;;-4.90;99.90;;;;;;5011111;28;20104;-61
2022/12/13 05:10:02;;;;;;;30.42;17.25;;;-4.90;99.90;;;;;;5012239;28;20048;-61
2022/12/13 05:12:28;;;;;;;32.65;18.27;;;-4.90;99.90;;;;;;5011157;28;20073;-61
2022/12/13 05:14:54;;;;;;;33.35;17.42;;;-5.00;99.90;;;;;;5011717;28;20077;-61
2022/12/13 05:17:20;;;;;;;38.38;17.90;;;-5.10;99.90;;;;;;5012092;28;20510;-61
2022/12/13 05:19:46;;;;;;;30.30;16.30;;;-5.20;99.90;;;;;;5011997;28;20466;-61
2022/12/13 05:22:14;;;;;;;35.25;19.38;;;-5.20;99.90;;;;;;5012071;28;20050;-61
2022/12/13 05:24:43;;;;;;;31.95;17.10;;;-5.20;99.90;;;;;;5011908;28;20516;-61
2022/12/13 05:27:10;;;;;;;34.03;18.65;;;-5.20;99.90;;;;;;5010666;28;20054;-61
2022/12/13 05:29:36;;;;;;;31.92;17.60;;;-5.20;99.90;;;;;;5011600;28;20042;-61
2022/12/13 05:32:03;;;;;;;35.42;18.58;;;-5.20;99.90;;;;;;5010766;28;20133;-61
2022/12/13 05:34:28;;;;;;;38.90;19.83;;;-5.20;99.90;;;;;;5010462;28;20046;-61
2022/12/13 05:36:54;;;;;;;41.40;20.27;;;-5.20;99.90;;;;;;5043262;28;20065;-61
2022/12/13 05:39:20;;;;;;;40.80;19.08;;;-5.10;99.90;;;;;;5011711;28;20046;-61
2022/12/13 05:41:46;;;;;;;33.92;18.35;;;-5.10;99.90;;;;;;5010884;28;20073;-61
2022/12/13 05:44:13;;;;;;;32.80;17.65;;;-5.10;99.90;;;;;;5010174;28;20038;-61
2022/12/13 05:46:39;;;;;;;39.95;19.50;;;-5.10;99.90;;;;;;5011538;28;20579;-61
2022/12/13 05:49:05;;;;;;;34.22;18.50;;;-5.20;99.90;;;;;;5010238;28;20049;-61
2022/12/13 05:51:31;;;;;;;40.35;19.13;;;-5.20;99.90;;;;;;5010187;28;20045;-61
2022/12/13 05:53:57;;;;;;;40.88;18.58;;;-5.20;99.90;;;;;;5011324;28;20042;-61
2022/12/13 05:56:22;;;;;;;44.40;19.83;;;-5.20;99.90;;;;;;5043137;28;20112;-61
2022/12/13 05:58:48;;;;;;;35.25;19.55;;;-5.10;99.90;;;;;;5009946;28;20037;-61
2022/12/13 06:01:15;;;;;;;39.10;19.63;;;-5.10;99.90;;;;;;5011372;28;20029;-61
2022/12/13 06:03:42;;;;;;;38.33;20.33;;;-5.10;99.90;;;;;;4993848;28;20038;-61
2022/12/13 06:06:09;;;;;;;40.38;21.10;;;-5.10;99.90;;;;;;5011227;28;20095;-61
2022/12/13 06:08:35;;;;;;;40.42;20.85;;;-5.10;99.90;;;;;;5011207;28;20122;-61
2022/12/13 06:11:03;;;;;;;43.25;21.48;;;-5.00;99.90;;;;;;5043152;28;20046;-61
2022/12/13 06:13:29;;;;;;;41.72;22.08;;;-5.00;99.90;;;;;;5010971;28;20216;-61
2022/12/13 06:16:03;;;;;;;42.17;21.70;;;-5.00;99.90;;;;;;5011074;28;20046;-61
2022/12/13 06:18:34;;;;;;;39.78;20.70;;;-5.00;99.90;;;;;;5011127;28;20038;-61
2022/12/13 06:21:02;;;;;;;41.45;21.73;;;-4.90;99.90;;;;;;5010001;28;20051;-61
2022/12/13 06:23:30;;;;;;;38.97;22.25;;;-4.90;99.90;;;;;;5042730;28;20139;-61
2022/12/13 06:25:56;;;;;;;40.80;22.73;;;-4.90;99.90;;;;;;5011179;28;20042;-61
2022/12/13 06:28:22;;;;;;;40.08;22.25;;;-4.90;99.90;;;;;;5009261;28;20048;-61
2022/12/13 06:30:51;;;;;;;33.70;18.48;;;-5.00;99.90;;;;;;4993676;28;20153;-61
2022/12/13 06:33:18;;;;;;;36.00;19.98;;;-5.00;99.90;;;;;;5010882;28;20045;-61
2022/12/13 06:35:45;;;;;;;36.45;18.85;;;-5.10;99.90;;;;;;5009296;28;20121;-61
2022/12/13 06:38:12;;;;;;;38.17;19.75;;;-5.10;99.90;;;;;;5009860;28;20072;-61
2022/12/13 06:40:37;;;;;;;43.17;19.77;;;-5.10;99.90;;;;;;5010768;28;20073;-61
2022/12/13 06:43:04;;;;;;;38.00;20.13;;;-5.10;99.90;;;;;;5010320;28;20082;-61
2022/12/13 06:45:30;;;;;;;38.22;20.40;;;-5.10;99.90;;;;;;5009669;28;20045;-61
2022/12/13 06:47:56;;;;;;;37.70;20.63;;;-5.10;99.90;;;;;;5009632;28;20379;-61
2022/12/13 06:50:22;;;;;;;38.13;21.58;;;-5.10;99.90;;;;;;5025716;28;20467;-61
2022/12/13 06:52:48;;;;;;;43.28;20.63;;;-5.00;99.90;;;;;;5044888;28;20084;-61
2022/12/13 06:55:14;;;;;;;37.65;19.83;;;-5.10;99.90;;;;;;5014779;28;20073;-61
2022/12/13 06:57:40;;;;;;;40.75;22.00;;;-5.10;99.90;;;;;;5013049;28;20050;-61
2022/12/13 07:00:07;;;;;;;37.70;21.13;;;-5.10;99.90;;;;;;5014673;28;20038;-61
2022/12/13 07:02:33;;;;;;;39.08;19.67;;;-5.10;99.90;;;;;;5013295;28;20049;-61
2022/12/13 07:04:58;;;;;;;37.45;20.52;;;-5.10;99.90;;;;;;5013347;28;20037;-61
2022/12/13 07:07:25;;;;;;;37.05;20.42;;;-5.10;99.90;;;;;;5013213;28;20052;-61
2022/12/13 07:09:51;;;;;;;40.03;20.75;;;-5.10;99.90;;;;;;5014701;28;20636;-61
2022/12/13 07:12:19;;;;;;;37.25;20.90;;;-5.10;99.90;;;;;;5046160;28;20046;-61
2022/12/13 07:14:46;;;;;;;42.67;22.10;;;-5.20;99.90;;;;;;5013077;28;20053;-61
2022/12/13 07:17:12;;;;;;;41.33;21.15;;;-5.20;99.90;;;;;;5014262;28;20053;-62
2022/12/13 07:19:38;;;;;;;37.80;20.70;;;-5.10;99.90;;;;;;5014105;28;20042;-61
2022/12/13 07:22:04;;;;;;;41.63;21.70;;;-5.10;99.90;;;;;;5046095;28;20042;-61
2022/12/13 07:24:30;;;;;;;39.60;22.25;;;-5.10;99.90;;;;;;5046128;28;20048;-61
2022/12/13 07:26:56;;;;;;;43.25;21.10;;;-5.10;99.90;;;;;;5013705;28;20041;-61
2022/12/13 07:29:21;;;;;;;40.72;22.08;;;-5.10;99.90;;;;;;5014209;28;20052;-61
2022/12/13 07:31:47;;;;;;;42.97;22.45;;;-5.10;99.90;;;;;;5013077;28;20085;-62
2022/12/13 07:34:13;;;;;;;46.40;23.15;;;-5.10;99.90;;;;;;5014060;28;20042;-62
2022/12/13 07:36:39;;;;;;;42.35;22.70;;;-5.10;99.90;;;;;;5013715;28;20100;-62
2022/12/13 07:39:04;;;;;;;45.88;22.95;;;-5.10;99.90;;;;;;5012598;28;20145;-62
2022/12/13 07:41:31;;;;;;;45.22;21.65;;;-5.10;99.90;;;;;;5013559;28;20042;-62
2022/12/13 07:43:57;;;;;;;39.42;20.70;;;-5.10;99.90;;;;;;5012600;28;20044;-63
2022/12/13 07:46:23;;;;;;;41.08;20.27;;;-5.10;99.90;;;;;;5013858;28;20049;-63
2022/12/13 07:48:49;;;;;;;49.22;22.85;;;-5.10;99.90;;;;;;5013794;28;20124;-63
2022/12/13 07:51:15;;;;;;;37.78;20.98;;;-5.10;99.90;;;;;;5012420;28;20134;-62
2022/12/13 07:53:41;;;;;;;42.83;20.65;;;-5.00;99.90;;;;;;5013765;28;20045;-62
2022/12/13 07:56:09;;;;;;;38.17;19.80;;;-5.00;99.90;;;;;;5013055;28;20088;-64
2022/12/13 07:58:35;;;;;;;39.60;19.98;;;-5.00;99.90;;;;;;5012344;28;20070;-63
2022/12/13 08:01:05;;;;;;;38.50;19.02;;;-5.10;99.90;;;;;;5012329;28;20049;-64
2022/12/13 08:03:31;;;;;;;39.10;20.87;;;-5.10;99.90;;;;;;5012706;28;20621;-63
2022/12/13 08:06:06;;;;;;;46.83;21.15;;;-5.10;99.90;;;;;;5013347;28;20128;-63
2022/12/13 08:08:32;;;;;;;42.00;21.48;;;-5.20;99.90;;;;;;5013357;28;20045;-63
2022/12/13 08:11:14;;;;;;;43.45;20.88;;;-5.10;99.90;;;;;;5012935;28;20042;-63
2022/12/13 08:13:40;;;;;;;41.50;20.67;;;-5.10;99.90;;;;;;5045328;28;20081;-63
2022/12/13 08:16:08;;;;;;;45.20;23.55;;;-5.00;99.90;;;;;;5012115;28;20046;-63
2022/12/13 08:18:34;;;;;;;41.72;21.70;;;-5.00;99.90;;;;;;5013419;28;20030;-63
2022/12/13 08:21:01;;;;;;;47.95;23.15;;;-4.80;99.90;;;;;;5013303;28;20056;-63
2022/12/13 08:23:29;;;;;;;40.28;21.10;;;-4.70;99.90;;;;;;5044901;28;20196;-63
2022/12/13 08:25:55;;;;;;;39.80;22.50;;;-4.40;99.90;;;;;;5013091;28;20038;-63
2022/12/13 08:28:22;;;;;;;45.88;22.77;;;-4.20;99.90;;;;;;5013016;28;20049;-64
2022/12/13 08:30:48;;;;;;;39.05;20.05;;;-4.00;99.90;;;;;;5013132;28;20045;-65
2022/12/13 08:33:14;;;;;;;42.08;20.20;;;-3.60;99.90;;;;;;4998186;28;20042;-63
2022/12/13 08:35:40;;;;;;;34.67;19.23;;;-3.10;99.90;;;;;;4992658;28;20162;-63
2022/12/13 08:38:06;;;;;;;33.75;19.27;;;-2.50;99.90;;;;;;4992387;28;20634;-63
2022/12/13 08:40:32;;;;;;;34.33;19.90;;;-2.00;99.90;;;;;;5002524;28;20105;-63
2022/12/13 08:42:58;;;;;;;30.77;17.58;;;-1.70;99.90;;;;;;5011296;28;20490;-64
2022/12/13 08:45:24;;;;;;;30.33;17.00;;;-1.40;99.90;;;;;;5008297;28;20153;-64
2022/12/13 08:47:50;;;;;;;33.72;18.10;;;-1.20;99.90;;;;;;4999738;28;20042;-64
2022/12/13 08:50:16;;;;;;;31.17;17.17;;;-0.80;99.90;;;;;;4998152;28;20041;-64
2022/12/13 08:52:43;;;;;;;34.45;18.23;;;-0.60;99.90;;;;;;5028022;28;20141;-64
2022/12/13 08:55:14;;;;;;;30.30;17.17;;;-0.30;99.90;;;;;;5003203;28;20500;-65
2022/12/13 08:57:41;;;;;;;30.90;19.05;;;0.20;99.90;;;;;;5000652;28;20050;-64
2022/12/13 09:00:10;;;;;;;30.10;17.48;;;0.80;99.90;;;;;;5000644;28;20037;-64
2022/12/13 09:02:36;;;;;;;31.73;18.25;;;1.50;99.90;;;;;;4998270;28;20065;-64
2022/12/13 09:05:02;;;;;;;28.92;18.05;;;2.10;99.90;;;;;;4994029;28;20038;-64
2022/12/13 09:07:28;;;;;;;31.85;18.45;;;2.50;99.90;;;;;;5000479;28;20042;-64
2022/12/13 09:09:54;;;;;;;27.58;17.88;;;2.60;99.90;;;;;;5007238;28;20096;-64
2022/12/13 09:12:20;;;;;;;29.52;16.90;;;2.80;99.90;;;;;;5001778;28;20402;-65
2022/12/13 09:14:46;;;;;;;28.45;19.05;;;3.00;99.90;;;;;;4993313;28;20042;-64
2022/12/13 09:17:14;;;;;;;29.75;17.90;;;3.20;99.90;;;;;;5003439;28;20049;-64
2022/12/13 09:19:40;;;;;;;32.63;18.23;;;3.50;99.90;;;;;;5000995;28;20072;-64
2022/12/13 09:22:06;;;;;;;27.60;17.73;;;4.00;99.90;;;;;;4974946;28;20046;-65
2022/12/13 09:24:32;;;;;;;30.13;18.90;;;4.50;99.90;;;;;;4999187;28;20049;-65
2022/12/13 09:26:58;;;;;;;28.40;17.40;;;4.70;99.90;;;;;;4999688;28;20042;-65
2022/12/13 09:29:24;;;;;;;30.75;18.88;;;4.80;99.90;;;;;;5002789;28;20108;-65
2022/12/13 09:31:50;;;;;;;30.45;19.17;;;4.90;99.90;;;;;;5002383;28;20042;-65
2022/12/13 09:34:16;;;;;;;30.20;19.17;;;5.00;99.90;;;;;;5002006;28;20199;-65
2022/12/13 09:36:41;;;;;;;29.17;18.65;;;5.30;99.90;;;;;;5001080;28;20501;-65
2022/12/13 09:39:10;;;;;;;26.38;19.02;;;5.40;99.90;;;;;;5000655;28;20717;-65
2022/12/13 09:41:44;;;;;;;29.08;18.27;;;5.60;99.90;;;;;;5001159;28;20362;-65
2022/12/13 09:44:19;;;;;;;26.48;18.00;;;5.70;99.90;;;;;;5004758;28;20034;-65
2022/12/13 09:46:47;;;;;;;25.92;18.17;;;5.70;99.90;;;;;;4991895;28;20608;-65
2022/12/13 09:49:17;;;;;;;28.75;18.10;;;5.70;99.90;;;;;;4982403;28;20041;-65
2022/12/13 09:51:45;;;;;;;;;;;6.00;99.90;;;;;;4999428;28;20047;-65
2022/12/13 09:54:18;;;;;;;31.50;19.45;;;6.10;99.90;;;;;;5000174;28;20290;-65
2022/12/13 09:56:49;;;;;;;28.55;19.60;;;6.40;99.90;;;;;;4990464;28;20069;-65
2022/12/13 09:59:23;;;;;;;27.42;18.40;;;6.70;99.90;;;;;;4982994;28;20125;-65
2022/12/13 10:01:48;;;;;;;29.55;18.10;;;7.00;99.90;;;;;;4998348;28;20101;-65
2022/12/13 10:04:18;;;;;;;32.70;20.27;;;7.10;99.90;;;;;;4982291;28;20515;-65
2022/12/13 10:06:43;;;;;;;28.67;19.80;;;7.20;99.90;;;;;;4999343;28;20046;-66
2022/12/13 10:09:12;;;;;;;30.52;19.85;;;7.30;99.90;;;;;;4999139;28;20053;-66
2022/12/13 10:11:49;;;;;;;34.13;20.52;;;7.50;99.90;;;;;;4983601;28;20038;-66
2022/12/13 10:14:28;;;;;;;26.02;18.02;;;7.80;99.90;;;;;;5001978;28;20041;-66
2022/12/13 10:16:59;;;;;;;31.73;19.35;;;8.00;99.90;;;;;;5000599;28;20049;-66
2022/12/13 10:19:46;;;;;;;29.15;18.10;;;8.00;99.90;;;;;;4982561;28;20046;-66
2022/12/13 10:22:16;;;;;;;26.83;18.67;;;8.00;99.90;;;;;;4989370;28;20069;-66
2022/12/13 10:25:03;;;;;;;26.83;18.20;;;8.10;99.90;;;;;;5010762;28;20042;-66
2022/12/13 10:27:35;;;;;;;30.00;18.92;;;8.40;99.90;;;;;;5009407;28;20081;-66
2022/12/13 10:30:12;;;;;;;30.38;20.20;;;8.30;99.90;;;;;;5009490;28;20046;-66
2022/12/13 10:32:59;;;;;;;27.42;18.67;;;8.30;99.90;;;;;;5010679;28;20042;-66
2022/12/13 10:35:35;;;;;;;29.10;19.02;;;8.40;99.90;;;;;;5009835;28;20087;-67
2022/12/13 10:38:25;;;;;;;29.00;18.17;;;8.60;99.90;;;;;;5009565;28;20050;-67
2022/12/13 10:40:51;;;;;;;26.10;18.63;;;8.90;99.90;;;;;;5013662;28;20041;-67
2022/12/13 10:43:19;;;;;;;29.55;19.25;;;9.00;99.90;;;;;;5042442;28;20042;-67
2022/12/13 10:45:57;;;;;;;27.13;17.95;;;9.30;99.90;;;;;;5042425;28;20046;-67
2022/12/13 10:48:36;;;;;;;28.95;19.27;;;9.30;99.90;;;;;;5009325;28;20050;-67
2022/12/13 10:51:07;;;;;;;26.30;18.58;;;9.40;99.90;;;;;;5010660;28;20441;-67
2022/12/13 10:53:38;;;;;;;24.58;18.17;;;9.70;99.90;;;;;;5009308;28;20042;-67
2022/12/13 10:56:05;;;;;;;27.23;19.15;;;10.00;99.90;;;;;;5010337;28;20440;-68
2022/12/13 10:58:40;;;;;;;24.27;17.90;;;10.10;99.90;;;;;;4997143;28;20041;-67
2022/12/13 11:01:21;;;;;;;29.25;19.30;;;10.00;99.90;;;;;;4989686;28;20035;-68
2022/12/13 11:04:05;;;;;;;32.38;20.17;;;10.10;99.90;;;;;;4990463;28;20117;-68
2022/12/13 11:06:45;;;;;;;30.33;20.30;;;9.90;99.90;;;;;;5022551;28;20052;-68
2022/12/13 11:09:28;;;;;;;29.25;21.45;;;9.60;99.90;;;;;;4989641;28;20053;-68
2022/12/13 11:11:56;;;;;;;31.83;21.83;;;9.50;99.90;;;;;;5022168;28;20042;-68
2022/12/13 11:14:26;;;;;;;29.63;20.58;;;9.30;99.90;;;;;;5005857;28;20084;-68
2022/12/13 11:16:58;;;;;;;28.98;20.38;;;9.10;99.90;;;;;;5022074;28;20112;-67
2022/12/13 11:19:37;;;;;;;33.20;21.40;;;9.00;99.90;;;;;;5021711;28;20049;-67
2022/12/13 11:22:04;;;;;;;34.30;23.45;;;8.70;99.90;;;;;;5021993;28;20043;-67
2022/12/13 11:24:33;;;;;;;34.25;21.65;;;8.30;99.90;;;;;;4989169;28;20046;-67
2022/12/13 11:27:25;;;;;;;36.80;22.27;;;8.10;99.90;;;;;;5022306;28;20204;-67
2022/12/13 11:30:12;;;;;;;38.35;23.27;;;7.80;99.90;;;;;;5028853;28;20046;-67
2022/12/13 11:32:59;;;;;;;34.92;23.05;;;7.70;99.90;;;;;;5024033;28;20069;-67
2022/12/13 11:35:59;;;;;;;31.75;20.83;;;7.40;99.90;;;;;;4999635;28;20085;-67
2022/12/13 11:38:29;;;;;;;30.00;20.92;;;7.20;99.90;;;;;;4993322;28;20398;-67
2022/12/13 11:41:11;;;;;;;27.65;19.35;;;7.00;99.90;;;;;;5003525;28;20117;-67
2022/12/13 11:43:51;;;;;;;31.70;21.08;;;6.70;99.90;;;;;;5013852;28;20040;-66
2022/12/13 11:46:38;;;;;;;34.25;20.25;;;6.30;99.90;;;;;;5012280;28;20050;-66
2022/12/13 11:49:18;;;;;;;35.17;20.98;;;6.20;99.90;;;;;;5013515;28;20546;-66
2022/12/13 11:52:19;;;;;;;37.65;22.98;;;5.90;99.90;;;;;;4995956;28;20045;-66
2022/12/13 11:54:56;;;;;;;34.88;22.10;;;5.70;99.90;;;;;;5011952;28;20057;-66
2022/12/13 11:57:49;;;;;;;37.50;21.38;;;5.70;99.90;;;;;;5042330;28;20049;-66
2022/12/13 12:00:27;;;;;;;34.63;20.70;;;5.60;99.90;;;;;;4991595;28;20054;-66
2022/12/13 12:03:11;;;;;;;32.72;19.90;;;5.10;99.90;;;;;;4993127;28;20034;-66
2022/12/13 12:05:42;;;;;;;31.35;18.92;;;4.90;99.90;;;;;;5025539;28;20034;-66
2022/12/13 12:08:19;;;;;;;30.95;18.70;;;4.80;99.90;;;;;;5025401;28;20548;-65
2022/12/13 12:10:46;;;;;;;28.27;17.10;;;4.60;99.90;;;;;;4996076;28;20123;-67
2022/12/13 12:13:47;;;;;;;26.15;17.83;;;4.40;99.90;;;;;;5004831;28;20073;-66
2022/12/13 12:16:24;;;;;;;26.25;16.83;;;4.00;99.90;;;;;;4968909;28;20050;-66
2022/12/13 12:18:51;;;;;;;32.03;19.00;;;3.60;99.90;;;;;;4983732;28;20121;-66
2022/12/13 12:21:54;;;;;;;30.65;20.13;;;3.30;99.90;;;;;;4996554;28;20054;-66
2022/12/13 12:24:29;;;;;;;32.00;20.33;;;2.90;99.90;;;;;;4985025;28;20080;-66
2022/12/13 12:27:17;;;;;;;34.22;21.33;;;2.50;99.90;;;;;;4990736;28;20053;-66
2022/12/13 12:30:07;;;;;;;32.90;21.05;;;2.30;99.90;;;;;;4990731;28;20042;-66
2022/12/13 12:32:45;;;;;;;35.88;22.92;;;2.10;99.90;;;;;;4990602;28;20229;-66
2022/12/13 12:35:28;;;;;;;35.75;20.92;;;2.00;99.90;;;;;;4990447;28;20061;-66
2022/12/13 12:38:08;;;;;;;36.30;22.58;;;2.00;99.90;;;;;;4974464;28;20375;-66
2022/12/13 12:40:37;;;;;;;34.63;20.10;;;2.00;99.90;;;;;;4990385;28;20419;-66
2022/12/13 12:43:17;;;;;;;39.75;22.05;;;2.00;99.90;;;;;;4974162;28;20707;-66
2022/12/13 12:45:57;;;;;;;38.53;22.58;;;2.00;99.90;;;;;;4990051;28;20049;-66
2022/12/13 12:48:35;;;;;;;42.42;24.17;;;2.00;99.90;;;;;;4990443;28;20081;-66
2022/12/13 12:51:11;;;;;;;33.97;21.15;;;2.00;99.90;;;;;;4971391;28;20055;-66